Time;durP1;ratioP1;P1;durP2;ratioP2;P2;SDS_P1;SDS_P2;PMS_P1;PMS_P2;Temp;Humidity;BMP_temperature;BMP_pressure;BME280_temperature;BME280_humidity;BME280_pressure;Samples;Min_cycle;Max_cycle;Signal;HPM_P1;HPM_P2
2021/12/26 00:02:09;;;;;;;10.80;10.23;;;12.90;83.50;;;;;;4972968;28;20050;-79
2021/12/26 00:04:35;;;;;;;10.50;10.00;;;12.90;83.50;;;;;;4973981;28;20042;-79
2021/12/26 00:07:01;;;;;;;10.13;9.63;;;12.90;83.60;;;;;;4970598;28;20412;-79
2021/12/26 00:09:27;;;;;;;9.55;9.15;;;12.90;83.50;;;;;;4954929;28;20049;-79
2021/12/26 00:11:54;;;;;;;11.07;10.57;;;12.90;83.60;;;;;;4973358;28;20030;-79
2021/12/26 00:14:20;;;;;;;10.10;9.60;;;12.80;83.60;;;;;;4972145;28;20061;-79
2021/12/26 00:16:46;;;;;;;10.00;9.50;;;12.90;83.60;;;;;;4971319;28;20047;-79
2021/12/26 00:19:12;;;;;;;11.07;10.38;;;12.90;83.60;;;;;;4972335;28;20031;-79
2021/12/26 00:21:38;;;;;;;9.07;8.68;;;12.80;83.60;;;;;;4971496;28;20031;-79
2021/12/26 00:24:04;;;;;;;9.82;9.32;;;12.80;83.60;;;;;;4970963;28;20046;-79
2021/12/26 00:26:32;;;;;;;10.43;9.43;;;12.80;83.60;;;;;;4970527;28;20062;-79
2021/12/26 00:29:00;;;;;;;10.30;9.80;;;12.80;84.40;;;;;;4954258;28;20503;-78
2021/12/26 00:31:26;;;;;;;9.32;8.93;;;12.80;83.60;;;;;;4968572;28;20031;-79
2021/12/26 00:33:52;;;;;;;9.90;9.45;;;12.80;83.60;;;;;;4969657;28;20035;-78
2021/12/26 00:36:18;;;;;;;10.18;9.68;;;12.80;83.70;;;;;;4971151;28;20047;-78
2021/12/26 00:38:45;;;;;;;9.85;9.38;;;12.80;83.60;;;;;;4971874;28;20065;-79
2021/12/26 00:41:11;;;;;;;9.73;9.32;;;12.90;83.70;;;;;;4968528;28;20037;-79
2021/12/26 00:43:37;;;;;;;9.95;9.45;;;12.80;83.60;;;;;;4969826;28;20030;-79
2021/12/26 00:46:03;;;;;;;9.80;9.38;;;12.80;83.70;;;;;;4971400;28;20058;-79
2021/12/26 00:48:29;;;;;;;9.35;8.95;;;12.80;83.70;;;;;;4970408;28;20039;-79
2021/12/26 00:50:55;;;;;;;9.85;9.35;;;12.80;83.70;;;;;;4968733;28;20042;-79
2021/12/26 00:53:22;;;;;;;10.43;9.93;;;12.80;83.70;;;;;;4971534;28;20384;-79
2021/12/26 00:55:49;;;;;;;10.18;9.68;;;12.80;83.70;;;;;;4969925;28;20035;-79
2021/12/26 00:58:15;;;;;;;9.40;8.90;;;12.80;83.70;;;;;;4971554;28;20396;-79
2021/12/26 01:00:42;;;;;;;9.20;8.80;;;12.80;83.70;;;;;;4970243;28;20045;-79
2021/12/26 01:03:09;;;;;;;9.95;9.45;;;12.90;83.70;;;;;;4969988;28;20022;-79
2021/12/26 01:05:36;;;;;;;9.82;9.23;;;12.80;84.40;;;;;;4971665;28;20069;-79
2021/12/26 01:08:03;;;;;;;9.80;9.25;;;12.90;83.70;;;;;;4956005;28;20042;-79
2021/12/26 01:10:37;;;;;;;8.68;8.27;;;12.80;83.70;;;;;;4972850;28;20038;-79
2021/12/26 01:13:14;;;;;;;8.88;8.48;;;12.90;83.80;;;;;;4972331;28;20047;-79
2021/12/26 01:15:42;;;;;;;9.80;9.30;;;12.80;83.70;;;;;;4955085;28;20035;-79
2021/12/26 01:18:08;;;;;;;9.60;9.18;;;12.80;83.70;;;;;;4971552;28;20030;-79
2021/12/26 01:20:46;;;;;;;9.43;9.02;;;12.80;83.70;;;;;;4971338;28;20022;-79
2021/12/26 01:23:13;;;;;;;9.30;8.80;;;12.80;83.70;;;;;;4971072;28;20026;-79
2021/12/26 01:25:39;;;;;;;9.57;9.15;;;12.80;83.80;;;;;;4954239;28;20062;-79
2021/12/26 01:28:06;;;;;;;9.50;9.02;;;12.80;83.70;;;;;;4972344;28;20046;-79
2021/12/26 01:30:33;;;;;;;10.55;10.07;;;12.80;83.70;;;;;;4970812;28;20042;-79
2021/12/26 01:32:59;;;;;;;9.57;9.13;;;12.80;83.80;;;;;;4971453;28;20038;-79
2021/12/26 01:35:25;;;;;;;17.02;9.70;;;12.80;83.80;;;;;;4972283;28;20408;-79
2021/12/26 01:37:51;;;;;;;9.40;9.00;;;12.80;83.80;;;;;;4972156;28;20047;-79
2021/12/26 01:40:17;;;;;;;9.55;9.15;;;12.80;83.80;;;;;;4970533;28;20041;-79
2021/12/26 01:42:44;;;;;;;9.27;8.77;;;12.80;83.80;;;;;;4970391;28;20069;-79
2021/12/26 01:45:11;;;;;;;9.27;8.85;;;12.80;83.90;;;;;;4969421;28;20404;-79
2021/12/26 01:47:37;;;;;;;9.40;9.00;;;12.80;83.90;;;;;;4969853;28;20030;-79
2021/12/26 01:50:05;;;;;;;11.07;10.35;;;12.80;83.90;;;;;;4969869;28;20389;-79
2021/12/26 01:52:31;;;;;;;10.18;9.70;;;12.80;83.90;;;;;;4969781;28;20412;-79
2021/12/26 01:55:12;;;;;;;9.98;9.50;;;12.80;83.90;;;;;;4969928;28;20034;-79
2021/12/26 01:57:38;;;;;;;9.13;8.55;;;12.80;83.90;;;;;;4970289;28;20572;-79
2021/12/26 02:00:06;;;;;;;9.82;9.38;;;12.80;83.90;;;;;;4967804;28;20039;-79
2021/12/26 02:02:32;;;;;;;10.05;9.48;;;12.80;83.90;;;;;;4969691;28;20037;-79
2021/12/26 02:04:58;;;;;;;10.95;10.45;;;12.80;83.90;;;;;;4959018;28;20060;-79
2021/12/26 02:07:24;;;;;;;11.05;10.23;;;12.80;84.00;;;;;;4963414;28;20492;-79
2021/12/26 02:09:50;;;;;;;10.23;9.73;;;12.80;84.00;;;;;;4970432;28;20042;-79
2021/12/26 02:12:16;;;;;;;10.82;10.18;;;12.80;84.00;;;;;;4972755;28;20057;-79
2021/12/26 02:14:42;;;;;;;10.98;10.48;;;12.80;84.00;;;;;;4970985;28;20039;-79
2021/12/26 02:17:08;;;;;;;10.68;10.18;;;12.80;84.00;;;;;;4964717;28;20050;-79
2021/12/26 02:19:34;;;;;;;10.30;9.80;;;12.80;84.00;;;;;;4980784;28;20069;-79
2021/12/26 02:22:13;;;;;;;10.85;10.35;;;12.80;84.00;;;;;;4982459;28;20491;-79
2021/12/26 02:30:07;;;;;;;8.60;8.20;;;12.80;84.00;;;;;;4970565;28;20370;-79
2021/12/26 02:32:34;;;;;;;8.82;8.43;;;12.80;84.00;;;;;;4967694;28;20046;-80
2021/12/26 02:35:00;;;;;;;9.02;8.63;;;12.80;84.00;;;;;;4971267;28;20034;-79
2021/12/26 02:37:26;;;;;;;9.52;9.13;;;12.80;84.00;;;;;;4971625;28;20031;-79
2021/12/26 02:39:52;;;;;;;9.73;9.27;;;12.90;84.00;;;;;;4960670;28;20031;-79
2021/12/26 02:42:19;;;;;;;9.82;9.40;;;12.80;84.00;;;;;;4986738;28;20031;-79
2021/12/26 02:44:46;;;;;;;9.60;9.20;;;12.80;84.00;;;;;;4958711;28;20619;-79
2021/12/26 02:47:14;;;;;;;9.77;9.27;;;12.90;84.10;;;;;;4983366;28;20047;-79
2021/12/26 02:49:40;;;;;;;19.85;9.55;;;12.90;84.10;;;;;;4963934;28;20031;-79
2021/12/26 02:52:06;;;;;;;9.10;8.70;;;12.90;84.10;;;;;;4962025;28;20392;-79
2021/12/26 02:54:32;;;;;;;9.15;8.75;;;12.90;84.00;;;;;;4960156;28;20023;-79
2021/12/26 02:56:58;;;;;;;9.23;8.68;;;12.90;84.10;;;;;;4974579;28;20042;-79
2021/12/26 02:59:29;;;;;;;9.02;8.43;;;12.90;84.10;;;;;;4970184;28;20031;-79
2021/12/26 03:01:55;;;;;;;9.05;8.65;;;12.90;84.10;;;;;;4964823;28;20035;-79
2021/12/26 03:04:21;;;;;;;9.10;8.68;;;12.90;84.10;;;;;;4968337;28;20030;-79
2021/12/26 03:06:59;;;;;;;8.88;8.48;;;12.90;84.10;;;;;;4969192;28;20039;-79
2021/12/26 03:09:28;;;;;;;8.57;8.18;;;12.90;84.10;;;;;;4968717;28;20031;-79
2021/12/26 03:11:54;;;;;;;8.50;8.10;;;12.90;84.10;;;;;;4966132;28;20046;-79
2021/12/26 03:14:20;;;;;;;8.52;8.13;;;12.90;84.10;;;;;;4971445;28;20046;-78
2021/12/26 03:16:49;;;;;;;7.90;7.50;;;12.90;84.10;;;;;;4968940;28;20049;-79
2021/12/26 03:19:15;;;;;;;7.43;7.13;;;12.90;84.20;;;;;;4970551;28;20380;-78
2021/12/26 03:21:42;;;;;;;8.95;8.55;;;12.90;84.10;;;;;;4960379;28;20035;-78
2021/12/26 03:24:08;;;;;;;8.95;8.55;;;12.90;84.10;;;;;;4969767;28;20057;-78
2021/12/26 03:26:34;;;;;;;8.90;8.50;;;12.90;84.20;;;;;;4964941;28;20050;-78
2021/12/26 03:29:00;;;;;;;9.25;8.85;;;12.90;84.20;;;;;;4970353;28;20058;-79
2021/12/26 03:31:26;;;;;;;9.40;8.82;;;12.90;84.20;;;;;;4969228;28;20392;-79
2021/12/26 03:33:52;;;;;;;8.98;8.57;;;12.90;84.20;;;;;;4961440;28;20075;-79
2021/12/26 03:36:18;;;;;;;9.13;8.73;;;12.90;84.20;;;;;;4976139;28;20031;-79
2021/12/26 03:38:44;;;;;;;9.05;8.63;;;12.90;84.20;;;;;;4972211;28;20416;-79
2021/12/26 03:41:10;;;;;;;9.10;8.70;;;12.90;84.20;;;;;;4969456;28;20031;-79
2021/12/26 03:43:37;;;;;;;9.05;8.65;;;12.90;84.20;;;;;;4966933;28;20054;-79
2021/12/26 03:46:03;;;;;;;9.13;8.73;;;12.90;84.20;;;;;;4962492;28;20042;-79
2021/12/26 03:48:29;;;;;;;8.98;8.32;;;12.90;84.30;;;;;;4967180;28;20053;-79
2021/12/26 03:50:57;;;;;;;8.68;8.27;;;12.90;84.30;;;;;;4971086;28;20472;-80
2021/12/26 03:53:23;;;;;;;8.75;8.35;;;12.90;84.30;;;;;;4971034;28;20042;-80
2021/12/26 03:55:49;;;;;;;9.80;8.98;;;12.90;84.30;;;;;;4937468;28;20047;-80
2021/12/26 03:58:15;;;;;;;8.90;8.50;;;12.90;84.30;;;;;;4969580;28;20042;-80
2021/12/26 04:00:42;;;;;;;8.88;8.48;;;12.90;84.30;;;;;;4956283;28;20032;-80
2021/12/26 04:03:08;;;;;;;8.00;7.60;;;12.90;84.30;;;;;;4964675;28;20050;-80
2021/12/26 04:05:35;;;;;;;8.13;7.72;;;12.90;84.30;;;;;;4959277;28;20032;-80
2021/12/26 04:08:03;;;;;;;8.60;8.20;;;12.90;84.30;;;;;;4969791;28;20054;-80
2021/12/26 04:10:29;;;;;;;8.75;8.35;;;12.90;84.40;;;;;;4968057;28;20034;-80
2021/12/26 04:12:55;;;;;;;8.68;8.20;;;12.90;84.40;;;;;;4942767;28;20334;-80
2021/12/26 04:15:22;;;;;;;8.32;7.93;;;12.90;84.30;;;;;;4982143;28;20053;-80
2021/12/26 04:17:52;;;;;;;8.00;7.60;;;12.90;84.40;;;;;;4971214;28;20027;-80
2021/12/26 04:20:18;;;;;;;8.80;8.30;;;12.90;84.40;;;;;;4972540;28;20039;-80
2021/12/26 04:22:44;;;;;;;8.68;8.27;;;12.90;84.40;;;;;;4964467;28;20370;-80
2021/12/26 04:25:10;;;;;;;8.55;8.15;;;12.90;84.40;;;;;;4970482;28;20042;-79
2021/12/26 04:27:37;;;;;;;8.57;8.18;;;12.90;84.40;;;;;;4970513;28;20042;-80
2021/12/26 04:30:08;;;;;;;8.68;8.27;;;12.90;84.40;;;;;;4966567;28;20035;-78
2021/12/26 04:32:34;;;;;;;8.80;8.40;;;12.90;84.40;;;;;;4939353;28;20034;-79
2021/12/26 04:35:00;;;;;;;8.38;7.97;;;12.90;84.40;;;;;;4969312;28;20086;-80
2021/12/26 04:37:26;;;;;;;8.10;7.70;;;13.00;85.20;;;;;;4932087;28;1175244;-80
2021/12/26 04:39:52;;;;;;;7.97;7.57;;;12.90;84.40;;;;;;4983857;28;20042;-80
2021/12/26 04:42:18;;;;;;;8.52;8.13;;;12.90;84.40;;;;;;4958328;28;20038;-80
2021/12/26 04:44:45;;;;;;;8.45;8.05;;;12.90;84.50;;;;;;4957438;28;20058;-80
2021/12/26 04:47:11;;;;;;;8.40;8.00;;;12.90;84.40;;;;;;4971576;28;20058;-80
2021/12/26 04:49:37;;;;;;;8.18;7.78;;;13.00;84.50;;;;;;4967842;28;20027;-80
2021/12/26 04:52:03;;;;;;;8.48;8.07;;;12.90;84.50;;;;;;4969905;28;20503;-80
2021/12/26 04:54:29;;;;;;;8.68;8.18;;;12.90;84.50;;;;;;4951737;28;20050;-80
2021/12/26 04:56:55;;;;;;;8.52;8.13;;;12.90;84.50;;;;;;4953620;28;20062;-80
2021/12/26 04:59:22;;;;;;;14.52;9.18;;;12.90;84.50;;;;;;4970440;28;20037;-80
2021/12/26 05:01:48;;;;;;;8.98;8.57;;;12.90;84.50;;;;;;4971701;28;20504;-80
2021/12/26 05:04:14;;;;;;;8.55;8.15;;;12.90;84.80;;;;;;4969205;28;20388;-80
2021/12/26 05:06:40;;;;;;;8.82;8.43;;;12.90;84.50;;;;;;4959722;28;20042;-80
2021/12/26 05:09:06;;;;;;;9.00;8.60;;;12.90;84.60;;;;;;4960613;28;20035;-80
2021/12/26 05:11:33;;;;;;;8.90;8.50;;;12.90;84.60;;;;;;4973046;28;20059;-80
2021/12/26 05:13:59;;;;;;;8.68;8.27;;;12.90;84.70;;;;;;4969362;28;20408;-80
2021/12/26 05:16:25;;;;;;;8.68;8.27;;;12.80;84.60;;;;;;4950660;29;20028;-80
2021/12/26 05:18:51;;;;;;;8.50;8.10;;;12.80;84.60;;;;;;4972580;28;20027;-79
2021/12/26 05:21:17;;;;;;;9.25;8.73;;;12.80;84.60;;;;;;4967514;28;20027;-80
2021/12/26 05:23:44;;;;;;;8.82;8.43;;;12.80;84.70;;;;;;4963886;28;20366;-80
2021/12/26 05:26:10;;;;;;;8.68;8.27;;;12.80;84.70;;;;;;4964243;28;20042;-80
2021/12/26 05:28:36;;;;;;;8.27;7.88;;;12.80;84.70;;;;;;4951011;28;20488;-80
2021/12/26 05:31:02;;;;;;;8.95;8.55;;;12.70;84.70;;;;;;4962981;28;20045;-79
2021/12/26 05:33:28;;;;;;;9.07;8.68;;;12.70;84.70;;;;;;4964650;28;20365;-79
2021/12/26 05:35:54;;;;;;;8.98;8.57;;;12.70;84.70;;;;;;4975793;28;20038;-79
2021/12/26 05:38:20;;;;;;;8.02;7.63;;;12.70;84.70;;;;;;4973070;28;20488;-79
2021/12/26 05:40:46;;;;;;;9.00;8.60;;;12.70;84.80;;;;;;4971240;28;20031;-79
2021/12/26 05:43:12;;;;;;;9.15;8.65;;;12.70;84.80;;;;;;4973833;28;20037;-79
2021/12/26 05:45:38;;;;;;;9.30;8.68;;;12.70;84.80;;;;;;4981187;28;20667;-79
2021/12/26 05:48:04;;;;;;;8.70;8.30;;;12.70;84.80;;;;;;4972652;28;20049;-78
2021/12/26 05:50:30;;;;;;;8.68;8.27;;;12.60;84.80;;;;;;4960304;28;20072;-79
2021/12/26 05:52:57;;;;;;;8.93;8.52;;;12.70;84.90;;;;;;4964528;28;20495;-80
2021/12/26 05:55:23;;;;;;;8.88;8.48;;;12.70;84.90;;;;;;4975232;28;20120;-81
2021/12/26 05:57:49;;;;;;;9.20;8.80;;;12.60;84.80;;;;;;4975622;28;20403;-80
2021/12/26 06:00:16;;;;;;;9.13;8.45;;;12.60;84.80;;;;;;4971285;28;20049;-81
2021/12/26 06:02:43;;;;;;;8.23;7.82;;;12.60;84.90;;;;;;4971111;28;20042;-80
2021/12/26 06:05:09;;;;;;;10.40;7.63;;;12.60;84.90;;;;;;4962506;28;20050;-80
2021/12/26 06:07:36;;;;;;;7.78;7.43;;;12.60;84.90;;;;;;4972345;28;20054;-80
2021/12/26 06:10:04;;;;;;;7.60;7.30;;;12.60;84.90;;;;;;4974745;28;20385;-81
2021/12/26 06:12:30;;;;;;;8.20;7.80;;;12.60;84.90;;;;;;4975887;28;20133;-81
2021/12/26 06:14:56;;;;;;;8.93;8.52;;;12.60;84.90;;;;;;4964147;28;20400;-79
2021/12/26 06:17:22;;;;;;;8.20;7.80;;;12.60;84.90;;;;;;4972856;28;20034;-79
2021/12/26 06:19:48;;;;;;;8.95;8.55;;;12.60;84.90;;;;;;4963721;28;20054;-79
2021/12/26 06:22:16;;;;;;;8.63;8.23;;;12.60;84.90;;;;;;4965725;28;20496;-81
2021/12/26 06:24:42;;;;;;;8.63;8.23;;;12.60;85.70;;;;;;4953970;28;20424;-79
2021/12/26 06:27:09;;;;;;;8.52;8.13;;;12.60;84.90;;;;;;4963170;28;20078;-80
2021/12/26 06:29:35;;;;;;;8.18;7.78;;;12.60;84.90;;;;;;4958218;28;20039;-80
2021/12/26 06:32:01;;;;;;;9.70;8.15;;;12.60;85.00;;;;;;4969073;28;20050;-80
2021/12/26 06:34:27;;;;;;;7.63;7.30;;;12.60;85.00;;;;;;4970350;28;20471;-80
2021/12/26 06:36:53;;;;;;;8.27;7.88;;;12.60;84.90;;;;;;4973588;28;20030;-79
2021/12/26 06:39:19;;;;;;;8.05;7.65;;;12.60;84.90;;;;;;4964887;28;20500;-79
2021/12/26 06:41:45;;;;;;;8.35;7.95;;;12.60;84.90;;;;;;4969639;28;20042;-80
2021/12/26 06:44:12;;;;;;;8.88;8.38;;;12.60;84.90;;;;;;4969639;28;20030;-81
2021/12/26 06:46:38;;;;;;;8.10;7.70;;;12.60;84.90;;;;;;4965710;28;20058;-80
2021/12/26 06:49:04;;;;;;;9.07;8.43;;;12.60;84.90;;;;;;4972130;28;20496;-80
2021/12/26 06:51:31;;;;;;;8.55;8.15;;;12.60;84.90;;;;;;4968909;28;20035;-80
2021/12/26 06:53:57;;;;;;;8.93;8.52;;;12.60;85.00;;;;;;4969543;28;20027;-83
2021/12/26 06:56:23;;;;;;;8.18;7.78;;;12.60;85.00;;;;;;4971537;28;20392;-81
2021/12/26 06:58:49;;;;;;;8.93;8.52;;;12.60;85.00;;;;;;4971781;28;20034;-83
2021/12/26 07:01:15;;;;;;;8.68;8.27;;;12.60;85.70;;;;;;4967648;28;20035;-83
2021/12/26 07:03:41;;;;;;;8.65;8.25;;;12.60;85.00;;;;;;4969142;28;20633;-85
2021/12/26 07:06:07;;;;;;;8.80;8.40;;;12.60;85.00;;;;;;4972573;28;20043;-87
2021/12/26 07:08:33;;;;;;;9.00;8.60;;;12.60;85.00;;;;;;4970302;28;20061;-83
2021/12/26 07:11:00;;;;;;;10.50;9.80;;;12.60;85.00;;;;;;4971008;28;20043;-81
2021/12/26 07:13:26;;;;;;;9.10;8.70;;;12.60;85.00;;;;;;4954199;28;20043;-81
2021/12/26 07:15:52;;;;;;;9.13;8.63;;;12.60;85.00;;;;;;4947966;28;20032;-81
2021/12/26 07:18:18;;;;;;;9.50;9.10;;;12.60;85.00;;;;;;4974890;28;20038;-80
2021/12/26 07:20:44;;;;;;;9.35;8.95;;;12.60;85.00;;;;;;4974204;28;20066;-83
2021/12/26 07:23:10;;;;;;;8.27;7.88;;;12.60;85.00;;;;;;4965379;28;20039;-83
2021/12/26 07:25:36;;;;;;;9.00;8.50;;;12.60;85.00;;;;;;4969688;28;20030;-80
2021/12/26 07:28:03;;;;;;;10.05;9.55;;;12.60;85.00;;;;;;4972425;28;20035;-75
2021/12/26 07:30:29;;;;;;;10.13;9.63;;;12.60;85.00;;;;;;4966216;28;20043;-77
2021/12/26 07:32:55;;;;;;;10.98;10.48;;;12.60;85.00;;;;;;4968001;28;20030;-79
2021/12/26 07:35:22;;;;;;;11.10;10.60;;;12.60;85.00;;;;;;4970127;28;20115;-76
2021/12/26 07:37:48;;;;;;;10.38;9.88;;;12.60;85.10;;;;;;4974022;28;20045;-77
2021/12/26 07:40:15;;;;;;;9.52;9.13;;;12.60;85.10;;;;;;4972316;28;20042;-77
2021/12/26 07:42:41;;;;;;;11.10;10.60;;;12.60;85.10;;;;;;4965714;28;20070;-79
2021/12/26 07:45:08;;;;;;;11.10;10.57;;;12.50;85.10;;;;;;4976746;28;20042;-80
2021/12/26 07:47:34;;;;;;;8.90;8.50;;;12.50;85.00;;;;;;4971801;28;20384;-81
2021/12/26 07:50:00;;;;;;;8.52;8.13;;;12.50;85.00;;;;;;4973171;28;20082;-80
2021/12/26 07:52:31;;;;;;;9.23;8.32;;;12.50;85.10;;;;;;4961600;28;20039;-77
2021/12/26 07:54:57;;;;;;;7.97;7.57;;;12.40;85.10;;;;;;4967205;28;20419;-79
2021/12/26 07:57:23;;;;;;;7.68;7.35;;;12.40;85.10;;;;;;4969679;28;20484;-81
2021/12/26 07:59:49;;;;;;;7.97;7.57;;;12.40;85.20;;;;;;4959686;28;20044;-77
2021/12/26 08:02:17;;;;;;;7.35;7.05;;;12.40;85.20;;;;;;4970171;28;20505;-81
2021/12/26 08:04:45;;;;;;;8.00;7.60;;;12.40;85.30;;;;;;4953055;28;20047;-84
2021/12/26 08:07:11;;;;;;;7.40;7.10;;;12.40;85.30;;;;;;4969653;28;20035;-85
2021/12/26 08:09:37;;;;;;;7.78;7.40;;;12.40;85.30;;;;;;4959141;28;20039;-84
2021/12/26 08:12:03;;;;;;;7.72;7.28;;;12.30;85.30;;;;;;4964960;28;20388;-86
2021/12/26 08:14:29;;;;;;;7.78;7.40;;;12.30;85.30;;;;;;4998205;28;20488;-82
2021/12/26 08:16:55;;;;;;;7.35;7.05;;;12.30;85.30;;;;;;4973239;28;20120;-82
2021/12/26 08:19:22;;;;;;;7.15;6.85;;;12.30;85.30;;;;;;4971239;28;20496;-80
2021/12/26 08:21:51;;;;;;;8.45;8.05;;;12.30;85.20;;;;;;4973959;28;20034;-83
2021/12/26 08:24:17;;;;;;;11.23;10.63;;;12.30;85.20;;;;;;4963131;28;20038;-83
2021/12/26 08:26:43;;;;;;;10.13;9.63;;;12.30;85.20;;;;;;4966230;28;20039;-82
2021/12/26 08:29:09;;;;;;;11.07;10.52;;;12.40;85.20;;;;;;4973462;28;20039;-83
2021/12/26 08:31:35;;;;;;;9.68;9.18;;;12.30;85.20;;;;;;4964748;28;20046;-82
2021/12/26 08:34:04;;;;;;;9.77;9.35;;;12.40;85.20;;;;;;4967138;28;20387;-82
2021/12/26 08:36:30;;;;;;;10.32;9.82;;;12.30;85.10;;;;;;4971190;28;20046;-85
2021/12/26 08:38:56;;;;;;;10.70;10.20;;;12.30;85.10;;;;;;4970620;28;20050;-80
2021/12/26 08:41:23;;;;;;;9.85;9.27;;;12.30;85.10;;;;;;4974981;28;20034;-79
2021/12/26 08:43:49;;;;;;;9.65;9.25;;;12.30;85.10;;;;;;4969598;28;20034;-79
2021/12/26 08:46:15;;;;;;;10.57;10.07;;;12.30;85.10;;;;;;4972552;28;20046;-79
2021/12/26 08:48:41;;;;;;;9.88;9.38;;;12.30;85.10;;;;;;4972591;28;20046;-83
2021/12/26 08:51:07;;;;;;;8.27;7.88;;;12.40;85.20;;;;;;4973503;28;20469;-83
2021/12/26 08:53:33;;;;;;;9.75;9.25;;;12.40;85.30;;;;;;4973643;28;20050;-77
2021/12/26 08:56:01;;;;;;;8.75;8.35;;;12.50;85.20;;;;;;4955579;28;20046;-76
2021/12/26 08:58:27;;;;;;;8.07;7.68;;;12.60;85.10;;;;;;4979945;28;20046;-77
2021/12/26 09:00:53;;;;;;;8.80;8.40;;;12.50;84.80;;;;;;4963226;28;20032;-78
2021/12/26 09:03:19;;;;;;;21.13;8.98;;;12.50;84.80;;;;;;4972404;28;20054;-81
2021/12/26 09:05:45;;;;;;;8.35;7.85;;;12.60;84.90;;;;;;4953480;29;20060;-78
2021/12/26 09:08:11;;;;;;;7.78;7.43;;;12.60;84.90;;;;;;4972646;28;20424;-82
2021/12/26 09:10:38;;;;;;;8.50;8.10;;;12.60;84.90;;;;;;4976899;28;20030;-82
2021/12/26 09:13:05;;;;;;;8.02;7.63;;;12.60;84.90;;;;;;4956123;28;20050;-82
2021/12/26 09:15:32;;;;;;;8.10;7.70;;;12.60;84.80;;;;;;4971231;28;20042;-81
2021/12/26 09:17:59;;;;;;;7.70;7.30;;;12.60;84.90;;;;;;4973304;28;20045;-82
2021/12/26 09:20:25;;;;;;;8.25;7.75;;;12.60;84.80;;;;;;4976578;28;20026;-81
2021/12/26 09:22:52;;;;;;;7.70;7.38;;;12.60;84.80;;;;;;4977880;28;20034;-83
2021/12/26 09:25:18;;;;;;;12.25;8.32;;;12.70;84.90;;;;;;4968350;28;20031;-78
2021/12/26 09:27:44;;;;;;;13.20;8.63;;;12.60;84.80;;;;;;4961614;28;20043;-79
2021/12/26 09:30:12;;;;;;;8.75;8.35;;;12.70;84.80;;;;;;4974947;28;20034;-78
2021/12/26 09:32:38;;;;;;;8.65;8.25;;;12.70;84.90;;;;;;4971978;28;20057;-83
2021/12/26 09:35:05;;;;;;;8.65;8.20;;;12.70;84.80;;;;;;4971874;28;20400;-79
2021/12/26 09:37:31;;;;;;;8.23;7.82;;;12.70;84.80;;;;;;4955600;28;20045;-80
2021/12/26 09:39:57;;;;;;;8.30;7.90;;;12.70;84.90;;;;;;4954016;28;20389;-80
2021/12/26 09:42:24;;;;;;;8.25;7.85;;;12.70;84.80;;;;;;4957087;28;20038;-79
2021/12/26 09:44:51;;;;;;;13.13;8.70;;;12.70;84.90;;;;;;4956183;28;20027;-78
2021/12/26 09:47:17;;;;;;;8.50;8.10;;;12.80;84.80;;;;;;4951771;28;20070;-79
2021/12/26 09:49:43;;;;;;;8.80;8.40;;;12.80;84.80;;;;;;4951882;28;20051;-81
2021/12/26 09:52:09;;;;;;;8.32;7.93;;;12.80;84.90;;;;;;4970830;28;20041;-81
2021/12/26 09:54:36;;;;;;;8.13;7.72;;;12.80;84.80;;;;;;4971451;28;20041;-79
2021/12/26 09:57:02;;;;;;;8.35;7.95;;;12.90;84.90;;;;;;4971356;28;20023;-78
2021/12/26 09:59:30;;;;;;;16.25;8.20;;;12.80;84.80;;;;;;4966790;28;20037;-81
2021/12/26 10:02:00;;;;;;;8.98;8.57;;;12.90;84.80;;;;;;4970668;28;20039;-79
2021/12/26 10:04:28;;;;;;;9.20;8.60;;;12.90;84.80;;;;;;4971363;28;20472;-81
2021/12/26 10:07:09;;;;;;;10.35;9.85;;;12.90;84.80;;;;;;4969719;28;20034;-80
2021/12/26 10:09:47;;;;;;;8.95;8.55;;;12.90;84.80;;;;;;4958821;28;20069;-79
2021/12/26 10:12:14;;;;;;;10.80;9.95;;;13.00;84.80;;;;;;4956656;28;20057;-81
2021/12/26 10:14:43;;;;;;;10.20;9.75;;;13.00;84.70;;;;;;4956845;28;20031;-82
2021/12/26 10:17:11;;;;;;;11.23;10.25;;;13.00;84.70;;;;;;4953232;28;20046;-82
2021/12/26 10:19:39;;;;;;;10.45;9.95;;;13.10;84.80;;;;;;4966683;28;20038;-82
2021/12/26 10:22:06;;;;;;;10.40;9.90;;;13.10;85.50;;;;;;4967715;28;20054;-80
2021/12/26 10:24:33;;;;;;;9.95;9.45;;;13.10;84.60;;;;;;4970777;28;20042;-80
2021/12/26 10:27:04;;;;;;;9.55;9.15;;;13.20;84.60;;;;;;4969408;28;20412;-81
2021/12/26 10:29:40;;;;;;;9.80;9.27;;;13.20;84.60;;;;;;4956046;28;20062;-81
2021/12/26 10:32:25;;;;;;;10.43;9.93;;;13.30;84.60;;;;;;4967927;28;20046;-82
2021/12/26 10:34:56;;;;;;;13.38;9.00;;;13.30;84.50;;;;;;4973314;28;20034;-82
2021/12/26 10:37:24;;;;;;;9.18;8.73;;;13.30;84.60;;;;;;4973511;28;20380;-83
2021/12/26 10:39:52;;;;;;;9.70;9.20;;;13.40;84.50;;;;;;4967136;28;20051;-84
2021/12/26 10:42:20;;;;;;;10.23;9.70;;;13.50;84.50;;;;;;4961070;28;20027;-82
2021/12/26 10:44:51;;;;;;;10.35;9.85;;;13.70;84.50;;;;;;4970386;28;20391;-82
2021/12/26 10:47:19;;;;;;;10.25;9.75;;;13.80;84.40;;;;;;4950021;28;20558;-84
2021/12/26 10:49:53;;;;;;;10.38;9.60;;;13.80;85.00;;;;;;4972799;28;20044;-81
2021/12/26 10:52:27;;;;;;;24.25;18.58;;;13.90;84.30;;;;;;4942875;28;20396;-82
2021/12/26 10:55:05;;;;;;;22.98;11.15;;;13.90;84.40;;;;;;4959371;28;20046;-81
2021/12/26 10:57:37;;;;;;;10.82;10.23;;;13.90;84.30;;;;;;4957273;28;20038;-82
2021/12/26 11:00:14;;;;;;;11.05;10.45;;;14.00;84.40;;;;;;4963895;28;20027;-83
2021/12/26 11:02:45;;;;;;;11.15;10.52;;;14.00;84.40;;;;;;4955742;28;20358;-81
2021/12/26 11:05:18;;;;;;;10.23;9.73;;;14.10;84.50;;;;;;4960727;28;20484;-80
2021/12/26 11:08:13;;;;;;;10.85;10.27;;;14.10;84.40;;;;;;4974197;28;20039;-80
2021/12/26 11:10:41;;;;;;;11.38;9.52;;;14.20;84.50;;;;;;4948035;28;20512;-81
2021/12/26 11:13:15;;;;;;;10.98;10.27;;;14.30;84.50;;;;;;4959595;28;20057;-80
2021/12/26 11:15:41;;;;;;;9.73;9.27;;;14.30;84.40;;;;;;4963735;28;20038;-81
2021/12/26 11:18:09;;;;;;;10.18;9.68;;;14.30;84.40;;;;;;4984169;28;20053;-81
2021/12/26 11:20:56;;;;;;;10.25;9.75;;;14.30;84.30;;;;;;4971042;28;20042;-80
2021/12/26 11:23:30;;;;;;;9.85;9.43;;;14.30;84.40;;;;;;4969488;28;20038;-81
2021/12/26 11:26:10;;;;;;;10.35;9.85;;;14.40;84.50;;;;;;4967767;28;20384;-81
2021/12/26 11:28:38;;;;;;;11.20;10.65;;;14.40;84.60;;;;;;4969630;28;20042;-81
2021/12/26 11:31:07;;;;;;;15.85;10.15;;;14.40;84.60;;;;;;4969748;28;20036;-82
2021/12/26 11:33:33;;;;;;;10.30;9.80;;;14.40;84.60;;;;;;4957932;28;20054;-84
2021/12/26 11:36:00;;;;;;;10.40;9.90;;;14.40;84.60;;;;;;4973990;28;20023;-82
2021/12/26 11:38:27;;;;;;;11.40;10.82;;;14.40;84.70;;;;;;4962632;28;20404;-83
2021/12/26 11:40:58;;;;;;;9.90;9.40;;;14.40;84.70;;;;;;4974829;28;20027;-83
2021/12/26 11:43:46;;;;;;;10.25;9.75;;;14.40;84.70;;;;;;4966836;28;20023;-81
2021/12/26 11:46:29;;;;;;;10.48;9.98;;;14.40;84.70;;;;;;4974606;28;20039;-79
2021/12/26 11:49:00;;;;;;;9.45;9.00;;;14.40;84.70;;;;;;4973762;28;20125;-81
2021/12/26 11:51:56;;;;;;;9.07;8.68;;;14.40;84.70;;;;;;4959609;28;20025;-81
2021/12/26 11:54:43;;;;;;;10.63;8.85;;;14.30;84.70;;;;;;4962553;28;20507;-81
2021/12/26 11:57:16;;;;;;;10.05;9.45;;;14.30;84.70;;;;;;4973269;28;20127;-81
2021/12/26 11:59:54;;;;;;;8.70;8.30;;;14.20;84.80;;;;;;4975026;28;20039;-81
2021/12/26 12:02:47;;;;;;;9.25;8.80;;;14.20;84.90;;;;;;4962709;28;20058;-79
2021/12/26 12:05:34;;;;;;;8.93;8.52;;;14.10;85.00;;;;;;4970623;28;20039;-80
2021/12/26 12:08:01;;;;;;;8.27;7.88;;;14.10;85.10;;;;;;4962713;28;20031;-78
2021/12/26 12:10:35;;;;;;;11.70;9.35;;;14.10;85.10;;;;;;4962495;28;20034;-81
2021/12/26 12:13:03;;;;;;;9.68;9.20;;;14.10;85.10;;;;;;4964209;28;20027;-81
2021/12/26 12:15:51;;;;;;;8.80;8.40;;;14.10;85.00;;;;;;4957133;28;20034;-79
2021/12/26 12:18:25;;;;;;;8.95;8.45;;;14.10;85.10;;;;;;4972144;28;20030;-81
2021/12/26 12:21:06;;;;;;;10.23;9.73;;;14.10;85.10;;;;;;4953966;28;20034;-78
2021/12/26 12:23:32;;;;;;;8.90;8.50;;;14.10;85.00;;;;;;4973793;28;20499;-78
2021/12/26 12:25:58;;;;;;;9.75;9.20;;;14.20;85.00;;;;;;4964329;28;20401;-78
2021/12/26 12:28:26;;;;;;;8.90;8.50;;;14.20;85.10;;;;;;4987542;28;20239;-80
2021/12/26 12:31:08;;;;;;;10.50;10.00;;;14.20;85.00;;;;;;4971089;28;20050;-78
2021/12/26 12:33:35;;;;;;;13.52;12.63;;;14.20;85.00;;;;;;4970002;28;20042;-79
2021/12/26 12:36:09;;;;;;;10.02;9.40;;;14.20;84.90;;;;;;4972682;28;20396;-80
2021/12/26 12:38:39;;;;;;;8.88;8.48;;;14.20;84.90;;;;;;4984388;28;20043;-80
2021/12/26 12:41:10;;;;;;;10.07;9.38;;;14.20;84.90;;;;;;4971404;28;20039;-78
2021/12/26 12:43:44;;;;;;;11.40;10.48;;;14.20;84.90;;;;;;4938477;28;20042;-81
2021/12/26 12:46:11;;;;;;;9.73;9.23;;;14.20;85.00;;;;;;4968688;28;20031;-81
2021/12/26 12:48:40;;;;;;;10.60;10.00;;;14.10;84.90;;;;;;4959062;28;20065;-80
2021/12/26 12:51:15;;;;;;;10.32;9.20;;;14.10;84.90;;;;;;4973025;28;20038;-80
2021/12/26 12:53:46;;;;;;;10.20;9.70;;;14.20;85.00;;;;;;4967037;28;20042;-80